sensor_id;sensor_type;location;lat;lon;timestamp;P1;durP1;ratioP1;P2;durP2;ratioP2
19595;SDS011;9945;46.010;8.946;2022-10-16T00:00:40;18.30;;;16.40;;
19595;SDS011;9945;46.010;8.946;2022-10-16T00:03:08;17.48;;;15.77;;
19595;SDS011;9945;46.010;8.946;2022-10-16T00:05:39;19.38;;;16.70;;
19595;SDS011;9945;46.010;8.946;2022-10-16T00:08:09;17.92;;;15.95;;
19595;SDS011;9945;46.010;8.946;2022-10-16T00:10:39;19.95;;;17.77;;
19595;SDS011;9945;46.010;8.946;2022-10-16T00:13:06;18.92;;;16.00;;
19595;SDS011;9945;46.010;8.946;2022-10-16T00:15:34;23.52;;;16.73;;
19595;SDS011;9945;46.010;8.946;2022-10-16T00:18:02;21.13;;;16.98;;
19595;SDS011;9945;46.010;8.946;2022-10-16T00:20:29;19.70;;;16.30;;
19595;SDS011;9945;46.010;8.946;2022-10-16T00:22:58;21.73;;;17.65;;
19595;SDS011;9945;46.010;8.946;2022-10-16T00:25:25;18.25;;;16.05;;
19595;SDS011;9945;46.010;8.946;2022-10-16T00:27:53;18.70;;;15.90;;
19595;SDS011;9945;46.010;8.946;2022-10-16T00:30:20;22.40;;;16.95;;
19595;SDS011;9945;46.010;8.946;2022-10-16T00:32:48;21.55;;;17.15;;
19595;SDS011;9945;46.010;8.946;2022-10-16T00:35:15;20.23;;;16.33;;
19595;SDS011;9945;46.010;8.946;2022-10-16T00:37:42;18.23;;;16.27;;
19595;SDS011;9945;46.010;8.946;2022-10-16T00:40:09;20.67;;;16.85;;
19595;SDS011;9945;46.010;8.946;2022-10-16T00:42:36;26.13;;;16.88;;
19595;SDS011;9945;46.010;8.946;2022-10-16T00:45:05;19.75;;;16.67;;
19595;SDS011;9945;46.010;8.946;2022-10-16T00:47:35;22.23;;;17.48;;
19595;SDS011;9945;46.010;8.946;2022-10-16T00:50:06;18.23;;;16.40;;
19595;SDS011;9945;46.010;8.946;2022-10-16T00:52:35;18.80;;;16.88;;
19595;SDS011;9945;46.010;8.946;2022-10-16T00:55:06;25.90;;;16.88;;
19595;SDS011;9945;46.010;8.946;2022-10-16T00:57:34;19.73;;;16.98;;
19595;SDS011;9945;46.010;8.946;2022-10-16T01:00:03;18.30;;;16.38;;
19595;SDS011;9945;46.010;8.946;2022-10-16T01:02:34;18.67;;;16.52;;
19595;SDS011;9945;46.010;8.946;2022-10-16T01:05:01;18.13;;;16.23;;
19595;SDS011;9945;46.010;8.946;2022-10-16T01:07:31;20.45;;;17.73;;
19595;SDS011;9945;46.010;8.946;2022-10-16T01:10:09;23.25;;;17.05;;
19595;SDS011;9945;46.010;8.946;2022-10-16T01:12:45;18.45;;;16.52;;
19595;SDS011;9945;46.010;8.946;2022-10-16T01:15:20;27.90;;;16.35;;
19595;SDS011;9945;46.010;8.946;2022-10-16T01:17:53;21.85;;;17.52;;
19595;SDS011;9945;46.010;8.946;2022-10-16T01:20:27;18.35;;;16.40;;
19595;SDS011;9945;46.010;8.946;2022-10-16T01:22:59;18.52;;;16.08;;
19595;SDS011;9945;46.010;8.946;2022-10-16T01:25:36;19.08;;;17.05;;
19595;SDS011;9945;46.010;8.946;2022-10-16T01:28:16;19.08;;;16.52;;
19595;SDS011;9945;46.010;8.946;2022-10-16T01:30:48;18.27;;;16.30;;
19595;SDS011;9945;46.010;8.946;2022-10-16T01:33:23;18.13;;;16.42;;
19595;SDS011;9945;46.010;8.946;2022-10-16T01:35:56;20.17;;;16.08;;
19595;SDS011;9945;46.010;8.946;2022-10-16T01:38:30;17.08;;;15.32;;
19595;SDS011;9945;46.010;8.946;2022-10-16T01:41:01;16.20;;;14.60;;
19595;SDS011;9945;46.010;8.946;2022-10-16T01:43:36;19.98;;;15.45;;
19595;SDS011;9945;46.010;8.946;2022-10-16T01:46:06;19.65;;;14.25;;
19595;SDS011;9945;46.010;8.946;2022-10-16T01:48:36;16.80;;;15.02;;
19595;SDS011;9945;46.010;8.946;2022-10-16T01:51:05;20.35;;;15.13;;
19595;SDS011;9945;46.010;8.946;2022-10-16T01:53:34;17.83;;;14.90;;
19595;SDS011;9945;46.010;8.946;2022-10-16T01:56:03;15.70;;;14.10;;
19595;SDS011;9945;46.010;8.946;2022-10-16T01:58:36;15.40;;;14.00;;
19595;SDS011;9945;46.010;8.946;2022-10-16T02:01:07;21.50;;;14.68;;
19595;SDS011;9945;46.010;8.946;2022-10-16T02:03:37;17.23;;;14.07;;
19595;SDS011;9945;46.010;8.946;2022-10-16T02:06:08;15.02;;;13.48;;
19595;SDS011;9945;46.010;8.946;2022-10-16T02:08:35;14.63;;;13.23;;
19595;SDS011;9945;46.010;8.946;2022-10-16T02:11:04;16.35;;;13.75;;
19595;SDS011;9945;46.010;8.946;2022-10-16T02:13:32;13.65;;;12.48;;
19595;SDS011;9945;46.010;8.946;2022-10-16T02:16:04;17.00;;;13.32;;
19595;SDS011;9945;46.010;8.946;2022-10-16T02:18:32;13.93;;;12.38;;
19595;SDS011;9945;46.010;8.946;2022-10-16T02:21:00;13.88;;;12.68;;
19595;SDS011;9945;46.010;8.946;2022-10-16T02:23:37;14.77;;;13.25;;
19595;SDS011;9945;46.010;8.946;2022-10-16T02:26:13;16.85;;;13.80;;
19595;SDS011;9945;46.010;8.946;2022-10-16T02:28:48;14.32;;;12.98;;
19595;SDS011;9945;46.010;8.946;2022-10-16T02:31:22;14.10;;;12.60;;
19595;SDS011;9945;46.010;8.946;2022-10-16T02:33:53;16.27;;;13.55;;
19595;SDS011;9945;46.010;8.946;2022-10-16T02:36:24;13.85;;;12.38;;
19595;SDS011;9945;46.010;8.946;2022-10-16T02:38:52;16.48;;;13.35;;
19595;SDS011;9945;46.010;8.946;2022-10-16T02:41:20;14.50;;;12.98;;
19595;SDS011;9945;46.010;8.946;2022-10-16T02:43:48;14.40;;;13.00;;
19595;SDS011;9945;46.010;8.946;2022-10-16T02:46:15;15.60;;;13.32;;
19595;SDS011;9945;46.010;8.946;2022-10-16T02:48:45;15.00;;;13.02;;
19595;SDS011;9945;46.010;8.946;2022-10-16T02:51:12;16.00;;;12.55;;
19595;SDS011;9945;46.010;8.946;2022-10-16T02:53:39;13.82;;;12.40;;
19595;SDS011;9945;46.010;8.946;2022-10-16T02:56:06;13.65;;;12.35;;
19595;SDS011;9945;46.010;8.946;2022-10-16T02:58:33;15.45;;;13.60;;
19595;SDS011;9945;46.010;8.946;2022-10-16T03:01:00;13.65;;;12.38;;
19595;SDS011;9945;46.010;8.946;2022-10-16T03:03:26;13.23;;;11.82;;
19595;SDS011;9945;46.010;8.946;2022-10-16T03:05:55;12.88;;;11.50;;
19595;SDS011;9945;46.010;8.946;2022-10-16T03:08:22;18.70;;;12.18;;
19595;SDS011;9945;46.010;8.946;2022-10-16T03:10:50;14.80;;;13.23;;
19595;SDS011;9945;46.010;8.946;2022-10-16T03:13:18;17.75;;;12.25;;
19595;SDS011;9945;46.010;8.946;2022-10-16T03:15:46;16.48;;;11.55;;
19595;SDS011;9945;46.010;8.946;2022-10-16T03:18:13;17.30;;;12.50;;
19595;SDS011;9945;46.010;8.946;2022-10-16T03:20:40;16.02;;;12.02;;
19595;SDS011;9945;46.010;8.946;2022-10-16T03:23:10;15.48;;;12.32;;
19595;SDS011;9945;46.010;8.946;2022-10-16T03:25:37;17.50;;;13.40;;
19595;SDS011;9945;46.010;8.946;2022-10-16T03:28:04;15.65;;;12.95;;
19595;SDS011;9945;46.010;8.946;2022-10-16T03:30:31;18.88;;;13.63;;
19595;SDS011;9945;46.010;8.946;2022-10-16T03:32:58;15.57;;;14.15;;
19595;SDS011;9945;46.010;8.946;2022-10-16T03:35:25;15.60;;;12.75;;
19595;SDS011;9945;46.010;8.946;2022-10-16T03:37:52;15.43;;;13.32;;
19595;SDS011;9945;46.010;8.946;2022-10-16T03:40:20;15.63;;;14.05;;
19595;SDS011;9945;46.010;8.946;2022-10-16T03:42:47;13.70;;;12.07;;
19595;SDS011;9945;46.010;8.946;2022-10-16T03:45:14;15.85;;;14.02;;
19595;SDS011;9945;46.010;8.946;2022-10-16T03:47:41;23.13;;;12.85;;
19595;SDS011;9945;46.010;8.946;2022-10-16T03:50:08;15.80;;;14.18;;
19595;SDS011;9945;46.010;8.946;2022-10-16T03:52:35;16.90;;;13.40;;
19595;SDS011;9945;46.010;8.946;2022-10-16T03:55:02;15.75;;;14.15;;
19595;SDS011;9945;46.010;8.946;2022-10-16T03:57:30;17.17;;;13.02;;
19595;SDS011;9945;46.010;8.946;2022-10-16T03:59:57;15.98;;;13.23;;
19595;SDS011;9945;46.010;8.946;2022-10-16T04:02:24;17.05;;;14.48;;
19595;SDS011;9945;46.010;8.946;2022-10-16T04:04:51;15.68;;;14.05;;
19595;SDS011;9945;46.010;8.946;2022-10-16T04:07:18;15.20;;;13.60;;
19595;SDS011;9945;46.010;8.946;2022-10-16T04:09:45;15.18;;;13.50;;
19595;SDS011;9945;46.010;8.946;2022-10-16T04:12:12;19.70;;;13.93;;
19595;SDS011;9945;46.010;8.946;2022-10-16T04:14:40;21.92;;;14.40;;
19595;SDS011;9945;46.010;8.946;2022-10-16T04:17:07;15.85;;;13.60;;
19595;SDS011;9945;46.010;8.946;2022-10-16T04:19:34;20.45;;;13.23;;
19595;SDS011;9945;46.010;8.946;2022-10-16T04:22:01;13.93;;;12.52;;
19595;SDS011;9945;46.010;8.946;2022-10-16T04:24:28;14.75;;;13.40;;
19595;SDS011;9945;46.010;8.946;2022-10-16T04:26:54;15.70;;;13.95;;
19595;SDS011;9945;46.010;8.946;2022-10-16T04:29:21;16.23;;;13.77;;
19595;SDS011;9945;46.010;8.946;2022-10-16T04:31:50;15.40;;;13.68;;
19595;SDS011;9945;46.010;8.946;2022-10-16T04:34:16;17.52;;;14.07;;
19595;SDS011;9945;46.010;8.946;2022-10-16T04:36:43;17.33;;;13.18;;
19595;SDS011;9945;46.010;8.946;2022-10-16T04:39:12;15.25;;;13.20;;
19595;SDS011;9945;46.010;8.946;2022-10-16T04:41:39;15.35;;;12.77;;
19595;SDS011;9945;46.010;8.946;2022-10-16T04:44:06;18.10;;;13.20;;
19595;SDS011;9945;46.010;8.946;2022-10-16T04:46:33;16.63;;;13.57;;
19595;SDS011;9945;46.010;8.946;2022-10-16T04:49:01;18.48;;;13.60;;
19595;SDS011;9945;46.010;8.946;2022-10-16T04:51:28;15.82;;;13.98;;
19595;SDS011;9945;46.010;8.946;2022-10-16T04:53:56;17.58;;;13.90;;
19595;SDS011;9945;46.010;8.946;2022-10-16T04:56:23;18.88;;;15.80;;
19595;SDS011;9945;46.010;8.946;2022-10-16T04:58:49;14.30;;;12.95;;
19595;SDS011;9945;46.010;8.946;2022-10-16T05:01:16;15.40;;;13.80;;
19595;SDS011;9945;46.010;8.946;2022-10-16T05:03:43;15.40;;;12.82;;
19595;SDS011;9945;46.010;8.946;2022-10-16T05:06:12;13.63;;;12.45;;
19595;SDS011;9945;46.010;8.946;2022-10-16T05:08:39;20.40;;;14.00;;
19595;SDS011;9945;46.010;8.946;2022-10-16T05:11:06;14.18;;;12.77;;
19595;SDS011;9945;46.010;8.946;2022-10-16T05:13:32;14.88;;;13.48;;
19595;SDS011;9945;46.010;8.946;2022-10-16T05:15:59;16.70;;;13.82;;
19595;SDS011;9945;46.010;8.946;2022-10-16T05:18:26;16.52;;;14.70;;
19595;SDS011;9945;46.010;8.946;2022-10-16T05:20:53;15.13;;;13.63;;
19595;SDS011;9945;46.010;8.946;2022-10-16T05:23:21;16.20;;;12.90;;
19595;SDS011;9945;46.010;8.946;2022-10-16T05:25:52;16.25;;;14.45;;
19595;SDS011;9945;46.010;8.946;2022-10-16T05:28:20;16.80;;;13.75;;
19595;SDS011;9945;46.010;8.946;2022-10-16T05:30:47;15.93;;;14.30;;
19595;SDS011;9945;46.010;8.946;2022-10-16T05:33:14;15.20;;;13.63;;
19595;SDS011;9945;46.010;8.946;2022-10-16T05:35:41;17.08;;;13.63;;
19595;SDS011;9945;46.010;8.946;2022-10-16T05:38:09;13.80;;;12.38;;
19595;SDS011;9945;46.010;8.946;2022-10-16T05:40:38;14.00;;;12.35;;
19595;SDS011;9945;46.010;8.946;2022-10-16T05:43:05;14.57;;;12.73;;
19595;SDS011;9945;46.010;8.946;2022-10-16T05:45:32;17.38;;;12.68;;
19595;SDS011;9945;46.010;8.946;2022-10-16T05:47:59;15.18;;;13.43;;
19595;SDS011;9945;46.010;8.946;2022-10-16T05:50:26;14.25;;;12.55;;
19595;SDS011;9945;46.010;8.946;2022-10-16T05:52:53;14.63;;;13.18;;
19595;SDS011;9945;46.010;8.946;2022-10-16T05:55:19;16.60;;;13.95;;
19595;SDS011;9945;46.010;8.946;2022-10-16T05:57:48;16.35;;;13.10;;
19595;SDS011;9945;46.010;8.946;2022-10-16T06:00:15;15.63;;;13.25;;
19595;SDS011;9945;46.010;8.946;2022-10-16T06:02:42;18.08;;;13.18;;
19595;SDS011;9945;46.010;8.946;2022-10-16T06:05:08;19.27;;;12.98;;
19595;SDS011;9945;46.010;8.946;2022-10-16T06:07:35;15.02;;;13.50;;
19595;SDS011;9945;46.010;8.946;2022-10-16T06:10:03;13.95;;;12.55;;
19595;SDS011;9945;46.010;8.946;2022-10-16T06:12:31;15.82;;;13.48;;
19595;SDS011;9945;46.010;8.946;2022-10-16T06:14:59;14.55;;;13.15;;
19595;SDS011;9945;46.010;8.946;2022-10-16T06:17:26;15.50;;;13.50;;
19595;SDS011;9945;46.010;8.946;2022-10-16T06:19:53;15.55;;;13.98;;
19595;SDS011;9945;46.010;8.946;2022-10-16T06:22:20;16.10;;;13.32;;
19595;SDS011;9945;46.010;8.946;2022-10-16T06:24:47;15.57;;;14.10;;
19595;SDS011;9945;46.010;8.946;2022-10-16T06:27:15;15.40;;;13.82;;
19595;SDS011;9945;46.010;8.946;2022-10-16T06:29:42;18.75;;;13.18;;
19595;SDS011;9945;46.010;8.946;2022-10-16T06:32:11;19.15;;;14.50;;
19595;SDS011;9945;46.010;8.946;2022-10-16T06:34:38;15.10;;;13.70;;
19595;SDS011;9945;46.010;8.946;2022-10-16T06:37:06;14.98;;;13.57;;
19595;SDS011;9945;46.010;8.946;2022-10-16T06:39:33;21.35;;;14.88;;
19595;SDS011;9945;46.010;8.946;2022-10-16T06:41:59;17.13;;;14.63;;
19595;SDS011;9945;46.010;8.946;2022-10-16T06:44:26;17.83;;;15.57;;
19595;SDS011;9945;46.010;8.946;2022-10-16T06:46:53;16.35;;;14.23;;
19595;SDS011;9945;46.010;8.946;2022-10-16T06:49:21;17.40;;;14.20;;
19595;SDS011;9945;46.010;8.946;2022-10-16T06:51:48;16.38;;;14.38;;
19595;SDS011;9945;46.010;8.946;2022-10-16T06:54:15;15.77;;;14.10;;
19595;SDS011;9945;46.010;8.946;2022-10-16T06:56:43;18.75;;;15.25;;
19595;SDS011;9945;46.010;8.946;2022-10-16T06:59:10;16.17;;;14.52;;
19595;SDS011;9945;46.010;8.946;2022-10-16T07:01:37;16.50;;;14.70;;
19595;SDS011;9945;46.010;8.946;2022-10-16T07:04:04;17.10;;;13.98;;
19595;SDS011;9945;46.010;8.946;2022-10-16T07:06:33;15.48;;;13.75;;
19595;SDS011;9945;46.010;8.946;2022-10-16T07:09:01;15.32;;;13.23;;
19595;SDS011;9945;46.010;8.946;2022-10-16T07:11:30;14.63;;;13.25;;
19595;SDS011;9945;46.010;8.946;2022-10-16T07:13:57;19.20;;;14.10;;
19595;SDS011;9945;46.010;8.946;2022-10-16T07:16:25;18.98;;;13.70;;
19595;SDS011;9945;46.010;8.946;2022-10-16T07:18:53;14.23;;;12.90;;
19595;SDS011;9945;46.010;8.946;2022-10-16T07:21:23;16.23;;;13.18;;
19595;SDS011;9945;46.010;8.946;2022-10-16T07:23:53;15.95;;;12.57;;
19595;SDS011;9945;46.010;8.946;2022-10-16T07:26:21;15.10;;;13.00;;
19595;SDS011;9945;46.010;8.946;2022-10-16T07:28:49;15.80;;;13.18;;
19595;SDS011;9945;46.010;8.946;2022-10-16T07:31:18;14.25;;;12.85;;
19595;SDS011;9945;46.010;8.946;2022-10-16T07:33:47;14.60;;;13.20;;
19595;SDS011;9945;46.010;8.946;2022-10-16T07:36:15;16.02;;;14.38;;
19595;SDS011;9945;46.010;8.946;2022-10-16T07:38:42;15.02;;;13.45;;
19595;SDS011;9945;46.010;8.946;2022-10-16T07:41:11;15.45;;;13.90;;
19595;SDS011;9945;46.010;8.946;2022-10-16T07:43:44;14.88;;;13.20;;
19595;SDS011;9945;46.010;8.946;2022-10-16T07:46:12;18.77;;;14.38;;
19595;SDS011;9945;46.010;8.946;2022-10-16T07:48:40;14.75;;;13.32;;
19595;SDS011;9945;46.010;8.946;2022-10-16T07:51:11;18.98;;;13.90;;
19595;SDS011;9945;46.010;8.946;2022-10-16T07:53:38;16.65;;;13.25;;
19595;SDS011;9945;46.010;8.946;2022-10-16T07:56:05;14.00;;;12.70;;
19595;SDS011;9945;46.010;8.946;2022-10-16T07:58:34;17.83;;;14.25;;
19595;SDS011;9945;46.010;8.946;2022-10-16T08:01:03;15.88;;;13.60;;
19595;SDS011;9945;46.010;8.946;2022-10-16T08:03:31;17.63;;;13.32;;
19595;SDS011;9945;46.010;8.946;2022-10-16T08:05:58;15.27;;;13.77;;
19595;SDS011;9945;46.010;8.946;2022-10-16T08:08:25;15.15;;;13.65;;
19595;SDS011;9945;46.010;8.946;2022-10-16T08:10:53;30.08;;;14.27;;
19595;SDS011;9945;46.010;8.946;2022-10-16T08:13:20;14.60;;;13.18;;
19595;SDS011;9945;46.010;8.946;2022-10-16T08:15:48;17.95;;;13.68;;
19595;SDS011;9945;46.010;8.946;2022-10-16T08:18:15;14.40;;;13.05;;
19595;SDS011;9945;46.010;8.946;2022-10-16T08:20:42;14.50;;;13.18;;
19595;SDS011;9945;46.010;8.946;2022-10-16T08:23:09;14.02;;;12.63;;
19595;SDS011;9945;46.010;8.946;2022-10-16T08:25:38;15.93;;;12.73;;
19595;SDS011;9945;46.010;8.946;2022-10-16T08:28:06;14.48;;;13.05;;
19595;SDS011;9945;46.010;8.946;2022-10-16T08:30:34;16.30;;;13.57;;
19595;SDS011;9945;46.010;8.946;2022-10-16T08:33:02;14.85;;;12.90;;
19595;SDS011;9945;46.010;8.946;2022-10-16T08:35:29;16.92;;;12.98;;
19595;SDS011;9945;46.010;8.946;2022-10-16T08:37:56;14.25;;;12.77;;
19595;SDS011;9945;46.010;8.946;2022-10-16T08:40:24;14.45;;;12.95;;
19595;SDS011;9945;46.010;8.946;2022-10-16T08:46:04;14.75;;;13.25;;
19595;SDS011;9945;46.010;8.946;2022-10-16T08:48:46;18.02;;;12.55;;
19595;SDS011;9945;46.010;8.946;2022-10-16T08:51:18;14.45;;;13.02;;
19595;SDS011;9945;46.010;8.946;2022-10-16T08:53:49;13.05;;;11.75;;
19595;SDS011;9945;46.010;8.946;2022-10-16T08:56:19;16.00;;;13.50;;
19595;SDS011;9945;46.010;8.946;2022-10-16T08:58:46;15.77;;;13.63;;
19595;SDS011;9945;46.010;8.946;2022-10-16T09:01:14;14.60;;;13.10;;
19595;SDS011;9945;46.010;8.946;2022-10-16T09:03:49;13.10;;;11.95;;
19595;SDS011;9945;46.010;8.946;2022-10-16T09:06:36;13.80;;;12.57;;
19595;SDS011;9945;46.010;8.946;2022-10-16T09:09:18;14.93;;;13.30;;
19595;SDS011;9945;46.010;8.946;2022-10-16T09:11:57;13.95;;;12.35;;
19595;SDS011;9945;46.010;8.946;2022-10-16T09:17:24;14.63;;;12.88;;
19595;SDS011;9945;46.010;8.946;2022-10-16T09:20:03;13.88;;;12.57;;
19595;SDS011;9945;46.010;8.946;2022-10-16T09:22:40;13.77;;;12.52;;
19595;SDS011;9945;46.010;8.946;2022-10-16T09:25:10;14.13;;;12.80;;
19595;SDS011;9945;46.010;8.946;2022-10-16T09:27:39;18.77;;;12.73;;
19595;SDS011;9945;46.010;8.946;2022-10-16T09:30:10;13.98;;;12.63;;
19595;SDS011;9945;46.010;8.946;2022-10-16T09:32:39;15.15;;;13.07;;
19595;SDS011;9945;46.010;8.946;2022-10-16T09:35:13;15.50;;;13.73;;
19595;SDS011;9945;46.010;8.946;2022-10-16T09:37:42;14.00;;;12.63;;
19595;SDS011;9945;46.010;8.946;2022-10-16T09:40:23;17.40;;;11.85;;
19595;SDS011;9945;46.010;8.946;2022-10-16T09:42:52;13.02;;;11.57;;
19595;SDS011;9945;46.010;8.946;2022-10-16T09:45:24;12.90;;;11.50;;
19595;SDS011;9945;46.010;8.946;2022-10-16T09:47:51;13.50;;;12.20;;
19595;SDS011;9945;46.010;8.946;2022-10-16T09:50:23;13.35;;;11.90;;
19595;SDS011;9945;46.010;8.946;2022-10-16T09:53:02;15.38;;;12.73;;
19595;SDS011;9945;46.010;8.946;2022-10-16T09:55:30;22.20;;;12.18;;
19595;SDS011;9945;46.010;8.946;2022-10-16T09:57:57;13.88;;;12.15;;
19595;SDS011;9945;46.010;8.946;2022-10-16T10:00:24;13.35;;;11.95;;
19595;SDS011;9945;46.010;8.946;2022-10-16T10:02:51;13.35;;;11.05;;
19595;SDS011;9945;46.010;8.946;2022-10-16T10:05:21;14.02;;;11.18;;
19595;SDS011;9945;46.010;8.946;2022-10-16T10:07:54;13.43;;;11.75;;
19595;SDS011;9945;46.010;8.946;2022-10-16T10:10:24;12.98;;;11.73;;
19595;SDS011;9945;46.010;8.946;2022-10-16T10:12:53;15.15;;;12.02;;
19595;SDS011;9945;46.010;8.946;2022-10-16T10:15:20;14.50;;;11.35;;
19595;SDS011;9945;46.010;8.946;2022-10-16T10:17:49;16.25;;;12.13;;
19595;SDS011;9945;46.010;8.946;2022-10-16T10:20:26;15.77;;;11.38;;
19595;SDS011;9945;46.010;8.946;2022-10-16T10:22:54;12.93;;;11.82;;
19595;SDS011;9945;46.010;8.946;2022-10-16T10:25:24;13.63;;;12.18;;
19595;SDS011;9945;46.010;8.946;2022-10-16T10:28:03;14.15;;;11.75;;
19595;SDS011;9945;46.010;8.946;2022-10-16T10:30:49;12.82;;;11.50;;
19595;SDS011;9945;46.010;8.946;2022-10-16T10:33:27;19.73;;;12.32;;
19595;SDS011;9945;46.010;8.946;2022-10-16T10:36:05;11.60;;;10.60;;
19595;SDS011;9945;46.010;8.946;2022-10-16T10:38:43;12.13;;;10.77;;
19595;SDS011;9945;46.010;8.946;2022-10-16T10:41:20;12.30;;;11.10;;
19595;SDS011;9945;46.010;8.946;2022-10-16T10:44:04;11.05;;;10.15;;
19595;SDS011;9945;46.010;8.946;2022-10-16T10:46:41;11.43;;;10.23;;
19595;SDS011;9945;46.010;8.946;2022-10-16T10:49:36;14.85;;;11.27;;
19595;SDS011;9945;46.010;8.946;2022-10-16T10:52:23;13.73;;;12.27;;
19595;SDS011;9945;46.010;8.946;2022-10-16T10:55:11;12.40;;;11.15;;
19595;SDS011;9945;46.010;8.946;2022-10-16T10:57:50;18.35;;;12.25;;
19595;SDS011;9945;46.010;8.946;2022-10-16T11:00:27;12.23;;;11.13;;
19595;SDS011;9945;46.010;8.946;2022-10-16T11:03:12;10.77;;;9.70;;
19595;SDS011;9945;46.010;8.946;2022-10-16T11:05:47;11.55;;;10.40;;
19595;SDS011;9945;46.010;8.946;2022-10-16T11:08:18;11.50;;;10.30;;
19595;SDS011;9945;46.010;8.946;2022-10-16T11:10:50;11.05;;;10.13;;
19595;SDS011;9945;46.010;8.946;2022-10-16T11:13:25;15.95;;;11.20;;
19595;SDS011;9945;46.010;8.946;2022-10-16T11:15:58;12.43;;;11.23;;
19595;SDS011;9945;46.010;8.946;2022-10-16T11:18:30;11.73;;;10.63;;
19595;SDS011;9945;46.010;8.946;2022-10-16T11:21:05;12.70;;;11.40;;
19595;SDS011;9945;46.010;8.946;2022-10-16T11:23:40;15.45;;;10.95;;
19595;SDS011;9945;46.010;8.946;2022-10-16T11:26:14;14.25;;;10.15;;
19595;SDS011;9945;46.010;8.946;2022-10-16T11:28:46;17.48;;;10.60;;
19595;SDS011;9945;46.010;8.946;2022-10-16T11:31:16;11.10;;;10.10;;
19595;SDS011;9945;46.010;8.946;2022-10-16T11:33:49;10.50;;;9.35;;
19595;SDS011;9945;46.010;8.946;2022-10-16T11:36:25;15.57;;;10.52;;
19595;SDS011;9945;46.010;8.946;2022-10-16T11:39:02;11.68;;;10.68;;
19595;SDS011;9945;46.010;8.946;2022-10-16T11:41:37;11.77;;;10.50;;
19595;SDS011;9945;46.010;8.946;2022-10-16T11:44:14;11.80;;;10.23;;
19595;SDS011;9945;46.010;8.946;2022-10-16T11:46:51;11.02;;;9.98;;
19595;SDS011;9945;46.010;8.946;2022-10-16T11:49:25;10.70;;;9.27;;
19595;SDS011;9945;46.010;8.946;2022-10-16T11:51:59;12.18;;;9.75;;
19595;SDS011;9945;46.010;8.946;2022-10-16T11:54:34;12.98;;;10.70;;
19595;SDS011;9945;46.010;8.946;2022-10-16T11:57:08;9.95;;;9.05;;
19595;SDS011;9945;46.010;8.946;2022-10-16T11:59:41;8.32;;;7.65;;
19595;SDS011;9945;46.010;8.946;2022-10-16T12:02:20;9.25;;;8.30;;
19595;SDS011;9945;46.010;8.946;2022-10-16T12:05:02;10.48;;;9.65;;
19595;SDS011;9945;46.010;8.946;2022-10-16T12:07:38;10.25;;;9.23;;
19595;SDS011;9945;46.010;8.946;2022-10-16T12:10:19;12.27;;;9.18;;
19595;SDS011;9945;46.010;8.946;2022-10-16T12:12:47;10.60;;;9.80;;
19595;SDS011;9945;46.010;8.946;2022-10-16T12:15:19;9.35;;;8.57;;
19595;SDS011;9945;46.010;8.946;2022-10-16T12:17:49;9.57;;;8.38;;
19595;SDS011;9945;46.010;8.946;2022-10-16T12:20:21;11.00;;;9.60;;
19595;SDS011;9945;46.010;8.946;2022-10-16T12:22:56;10.02;;;8.45;;
19595;SDS011;9945;46.010;8.946;2022-10-16T12:25:27;11.25;;;8.75;;
19595;SDS011;9945;46.010;8.946;2022-10-16T12:27:57;10.55;;;9.07;;
19595;SDS011;9945;46.010;8.946;2022-10-16T12:30:26;11.38;;;10.25;;
19595;SDS011;9945;46.010;8.946;2022-10-16T12:32:55;10.43;;;9.48;;
19595;SDS011;9945;46.010;8.946;2022-10-16T12:35:25;11.57;;;9.60;;
19595;SDS011;9945;46.010;8.946;2022-10-16T12:38:03;11.02;;;9.65;;
19595;SDS011;9945;46.010;8.946;2022-10-16T12:40:35;11.05;;;8.70;;
19595;SDS011;9945;46.010;8.946;2022-10-16T12:43:23;13.00;;;9.60;;
19595;SDS011;9945;46.010;8.946;2022-10-16T12:46:02;10.43;;;9.43;;
19595;SDS011;9945;46.010;8.946;2022-10-16T12:48:32;11.13;;;8.70;;
19595;SDS011;9945;46.010;8.946;2022-10-16T12:51:09;10.25;;;9.25;;
19595;SDS011;9945;46.010;8.946;2022-10-16T12:53:37;12.45;;;9.43;;
19595;SDS011;9945;46.010;8.946;2022-10-16T12:56:08;13.70;;;9.05;;
19595;SDS011;9945;46.010;8.946;2022-10-16T12:58:48;9.55;;;8.43;;
19595;SDS011;9945;46.010;8.946;2022-10-16T13:01:36;9.43;;;8.65;;
19595;SDS011;9945;46.010;8.946;2022-10-16T13:07:15;9.93;;;8.70;;
19595;SDS011;9945;46.010;8.946;2022-10-16T13:09:55;10.13;;;8.32;;
19595;SDS011;9945;46.010;8.946;2022-10-16T13:12:40;11.52;;;7.55;;
19595;SDS011;9945;46.010;8.946;2022-10-16T13:15:34;9.73;;;8.65;;
19595;SDS011;9945;46.010;8.946;2022-10-16T13:18:13;10.45;;;7.90;;
19595;SDS011;9945;46.010;8.946;2022-10-16T13:20:53;9.82;;;8.13;;
19595;SDS011;9945;46.010;8.946;2022-10-16T13:23:29;8.73;;;7.90;;
19595;SDS011;9945;46.010;8.946;2022-10-16T13:26:05;9.40;;;7.90;;
19595;SDS011;9945;46.010;8.946;2022-10-16T13:28:43;8.90;;;8.00;;
19595;SDS011;9945;46.010;8.946;2022-10-16T13:31:12;11.05;;;9.25;;
19595;SDS011;9945;46.010;8.946;2022-10-16T13:33:45;12.68;;;9.43;;
19595;SDS011;9945;46.010;8.946;2022-10-16T13:36:19;10.13;;;9.43;;
19595;SDS011;9945;46.010;8.946;2022-10-16T13:38:48;13.10;;;10.82;;
19595;SDS011;9945;46.010;8.946;2022-10-16T13:41:25;12.63;;;9.98;;
19595;SDS011;9945;46.010;8.946;2022-10-16T13:43:53;13.43;;;9.45;;
19595;SDS011;9945;46.010;8.946;2022-10-16T13:46:23;10.82;;;9.88;;
19595;SDS011;9945;46.010;8.946;2022-10-16T13:48:57;15.35;;;11.30;;
19595;SDS011;9945;46.010;8.946;2022-10-16T13:51:25;10.90;;;9.77;;
19595;SDS011;9945;46.010;8.946;2022-10-16T13:53:54;11.98;;;9.63;;
19595;SDS011;9945;46.010;8.946;2022-10-16T13:56:24;9.63;;;8.70;;
19595;SDS011;9945;46.010;8.946;2022-10-16T13:59:01;13.38;;;9.93;;
19595;SDS011;9945;46.010;8.946;2022-10-16T14:01:30;10.05;;;9.20;;
19595;SDS011;9945;46.010;8.946;2022-10-16T14:04:03;13.68;;;9.73;;
19595;SDS011;9945;46.010;8.946;2022-10-16T14:06:31;10.82;;;9.82;;
19595;SDS011;9945;46.010;8.946;2022-10-16T14:09:00;11.90;;;9.68;;
19595;SDS011;9945;46.010;8.946;2022-10-16T14:11:32;11.20;;;10.20;;
19595;SDS011;9945;46.010;8.946;2022-10-16T14:14:09;13.48;;;10.52;;
19595;SDS011;9945;46.010;8.946;2022-10-16T14:16:37;12.13;;;11.13;;
19595;SDS011;9945;46.010;8.946;2022-10-16T14:19:13;14.73;;;11.27;;
19595;SDS011;9945;46.010;8.946;2022-10-16T14:21:44;16.83;;;12.60;;
19595;SDS011;9945;46.010;8.946;2022-10-16T14:24:12;13.48;;;11.73;;
19595;SDS011;9945;46.010;8.946;2022-10-16T14:26:40;14.70;;;11.85;;
19595;SDS011;9945;46.010;8.946;2022-10-16T14:29:13;13.98;;;12.07;;
19595;SDS011;9945;46.010;8.946;2022-10-16T14:31:53;15.32;;;13.80;;
19595;SDS011;9945;46.010;8.946;2022-10-16T14:34:25;17.77;;;14.38;;
19595;SDS011;9945;46.010;8.946;2022-10-16T14:36:55;18.13;;;13.55;;
19595;SDS011;9945;46.010;8.946;2022-10-16T14:39:23;18.00;;;14.05;;
19595;SDS011;9945;46.010;8.946;2022-10-16T14:41:54;15.98;;;13.25;;
19595;SDS011;9945;46.010;8.946;2022-10-16T14:44:26;17.48;;;13.02;;
19595;SDS011;9945;46.010;8.946;2022-10-16T14:46:56;18.30;;;14.23;;
19595;SDS011;9945;46.010;8.946;2022-10-16T14:49:24;15.70;;;12.93;;
19595;SDS011;9945;46.010;8.946;2022-10-16T14:51:53;15.70;;;14.20;;
19595;SDS011;9945;46.010;8.946;2022-10-16T14:54:20;15.15;;;13.57;;
19595;SDS011;9945;46.010;8.946;2022-10-16T14:56:47;14.63;;;13.23;;
19595;SDS011;9945;46.010;8.946;2022-10-16T14:59:17;17.33;;;15.15;;
19595;SDS011;9945;46.010;8.946;2022-10-16T15:01:48;21.95;;;15.20;;
19595;SDS011;9945;46.010;8.946;2022-10-16T15:04:15;13.13;;;11.98;;